KLM100 NZNV-NZWN
Flight info
| Callsign | KLM100 |
|---|---|
| Flight time | 1h 6m |
| Altitude | 35000 |
| Route | ADLUP Y615 ELDAK Q196 CH Y393 WARDS |
| Aircraft | B738/M-VGDW/C |
Departure
| Time | 2026-04-23 18:51 |
|---|---|
| Airport | Invercargill Airport (NZNV) |
Arrival
| Time | 2026-04-23 19:57 |
|---|---|
| Airport | Wellington International Airport (NZWN) |
| Time | Latitude | Longitude | Altitude | Speed | Heading |
|---|---|---|---|---|---|
| 2026-04-23 18:36 | -46.41539 | 168.32130 | 23 ft | 0 kts | 267° |
| 2026-04-23 18:40 | -46.41534 | 168.32127 | 23 ft | 0 kts | 352° |
| 2026-04-23 18:40 | -46.41522 | 168.32130 | 23 ft | 1 kts | 357° |
| 2026-04-23 18:41 | -46.41507 | 168.32123 | 23 ft | 2 kts | 337° |
| 2026-04-23 18:41 | -46.41476 | 168.32106 | 23 ft | 3 kts | 344° |
| 2026-04-23 18:41 | -46.41459 | 168.32100 | 23 ft | 0 kts | 348° |
| 2026-04-23 18:41 | -46.41450 | 168.32097 | 23 ft | 4 kts | 347° |
| 2026-04-23 18:42 | -46.41436 | 168.32092 | 23 ft | 0 kts | 342° |
| 2026-04-23 18:43 | -46.41399 | 168.32065 | 23 ft | 7 kts | 335° |
| 2026-04-23 18:43 | -46.41372 | 168.32047 | 23 ft | 1 kts | 335° |
| 2026-04-23 18:44 | -46.41368 | 168.32045 | 23 ft | 0 kts | 335° |
| 2026-04-23 18:44 | -46.41368 | 168.32044 | 23 ft | 0 kts | 335° |
| 2026-04-23 18:47 | -46.41367 | 168.32044 | 23 ft | 1 kts | 335° |
| 2026-04-23 18:48 | -46.41301 | 168.31999 | 23 ft | 10 kts | 329° |
| 2026-04-23 18:48 | -46.41313 | 168.31867 | 23 ft | 23 kts | 243° |
| 2026-04-23 18:48 | -46.41443 | 168.31453 | 23 ft | 81 kts | 245° |
| 2026-04-23 18:48 | -46.41679 | 168.30727 | 23 ft | 72 kts | 244° |
| 2026-04-23 18:49 | -46.41840 | 168.30264 | 23 ft | 41 kts | 241° |
| 2026-04-23 18:49 | -46.41886 | 168.30104 | 23 ft | 2 kts | 23° |
| 2026-04-23 18:49 | -46.41855 | 168.30191 | 23 ft | 11 kts | 65° |
| 2026-04-23 18:49 | -46.41830 | 168.30267 | 23 ft | 0 kts | 65° |
| 2026-04-23 18:50 | -46.41788 | 168.30397 | 23 ft | 48 kts | 64° |
| 2026-04-23 18:50 | -46.41513 | 168.31241 | 24 ft | 129 kts | 65° |
| 2026-04-23 18:51 | -46.40976 | 168.32903 | 165 ft | 193 kts | 64° |
| 2026-04-23 18:51 | -46.40332 | 168.34970 | 1337 ft | 192 kts | 66° |
| 2026-04-23 18:51 | -46.39888 | 168.36587 | 3050 ft | 142 kts | 67° |
| 2026-04-23 18:51 | -46.39585 | 168.37834 | 4216 ft | 134 kts | 69° |
| 2026-04-23 18:52 | -46.39307 | 168.39079 | 5230 ft | 134 kts | 66° |
| 2026-04-23 18:52 | -46.38987 | 168.40320 | 6216 ft | 134 kts | 65° |
| 2026-04-23 18:52 | -46.38614 | 168.41734 | 6555 ft | 186 kts | 65° |
| 2026-04-23 18:52 | -46.37981 | 168.43993 | 6200 ft | 232 kts | 65° |
| 2026-04-23 18:53 | -46.37327 | 168.46303 | 6128 ft | 232 kts | 65° |
| 2026-04-23 18:53 | -46.36682 | 168.48583 | 6144 ft | 236 kts | 65° |
| 2026-04-23 18:53 | -46.36072 | 168.50754 | 7706 ft | 230 kts | 65° |
| 2026-04-23 18:53 | -46.35483 | 168.52899 | 8997 ft | 238 kts | 65° |
| 2026-04-23 18:54 | -46.34872 | 168.55090 | 10175 ft | 232 kts | 61° |
| 2026-04-23 18:54 | -46.33857 | 168.56995 | 10336 ft | 237 kts | 37° |
| 2026-04-23 18:54 | -46.32385 | 168.58093 | 10686 ft | 250 kts | 14° |
| 2026-04-23 18:54 | -46.30819 | 168.58737 | 12220 ft | 242 kts | 15° |
| 2026-04-23 18:55 | -46.29004 | 168.59491 | 12646 ft | 280 kts | 15° |
| 2026-04-23 18:55 | -46.27302 | 168.60200 | 13892 ft | 281 kts | 15° |
| 2026-04-23 18:55 | -46.26488 | 168.60541 | 14339 ft | 285 kts | 15° |
| 2026-04-23 18:55 | -46.24549 | 168.61346 | 15430 ft | 290 kts | 15° |
| 2026-04-23 18:56 | -46.23248 | 168.61888 | 16107 ft | 295 kts | 15° |
| 2026-04-23 18:56 | -46.20693 | 168.63322 | 17410 ft | 305 kts | 31° |
| 2026-04-23 18:56 | -46.18987 | 168.65593 | 18453 ft | 314 kts | 47° |
| 2026-04-23 18:56 | -46.17408 | 168.68184 | 19404 ft | 320 kts | 44° |
| 2026-04-23 18:57 | -46.15839 | 168.70550 | 20307 ft | 325 kts | 43° |
| 2026-04-23 18:57 | -46.14197 | 168.73000 | 21195 ft | 330 kts | 43° |
| 2026-04-23 18:57 | -46.12580 | 168.75411 | 22019 ft | 335 kts | 43° |
| 2026-04-23 18:57 | -46.10934 | 168.77858 | 22820 ft | 340 kts | 43° |
| 2026-04-23 18:58 | -46.09272 | 168.80330 | 23587 ft | 345 kts | 43° |
| 2026-04-23 18:58 | -46.07586 | 168.82834 | 24329 ft | 350 kts | 43° |
| 2026-04-23 18:58 | -46.05832 | 168.85439 | 25063 ft | 355 kts | 43° |
| 2026-04-23 18:58 | -46.04083 | 168.88031 | 25761 ft | 360 kts | 43° |
| 2026-04-23 18:59 | -46.02340 | 168.90613 | 26433 ft | 364 kts | 43° |
| 2026-04-23 18:59 | -46.00560 | 168.93245 | 27082 ft | 369 kts | 44° |
| 2026-04-23 18:59 | -45.98729 | 168.95952 | 27728 ft | 373 kts | 44° |
| 2026-04-23 18:59 | -45.96913 | 168.98636 | 28389 ft | 375 kts | 44° |
| 2026-04-23 19:00 | -45.95093 | 169.01320 | 29027 ft | 378 kts | 44° |
| 2026-04-23 19:00 | -45.93249 | 169.04039 | 29679 ft | 380 kts | 44° |
| 2026-04-23 19:00 | -45.91383 | 169.06782 | 30287 ft | 382 kts | 44° |
| 2026-04-23 19:00 | -45.89326 | 169.09807 | 30972 ft | 384 kts | 44° |
| 2026-04-23 19:01 | -45.87273 | 169.12822 | 31601 ft | 386 kts | 44° |
| 2026-04-23 19:01 | -45.85381 | 169.15596 | 32199 ft | 387 kts | 45° |
| 2026-04-23 19:01 | -45.83506 | 169.18343 | 32722 ft | 390 kts | 45° |
| 2026-04-23 19:01 | -45.81598 | 169.21135 | 33239 ft | 392 kts | 45° |
| 2026-04-23 19:02 | -45.80339 | 169.22983 | 33537 ft | 395 kts | 45° |
| 2026-04-23 19:02 | -45.77750 | 169.26772 | 34158 ft | 399 kts | 45° |
| 2026-04-23 19:02 | -45.75754 | 169.29686 | 34606 ft | 402 kts | 45° |
| 2026-04-23 19:02 | -45.73756 | 169.32600 | 35041 ft | 405 kts | 45° |
| 2026-04-23 19:03 | -45.71677 | 169.35629 | 35397 ft | 401 kts | 45° |
| 2026-04-23 19:03 | -45.67686 | 169.41434 | 35438 ft | 408 kts | 45° |
| 2026-04-23 19:04 | -45.63697 | 169.47221 | 35433 ft | 408 kts | 45° |
| 2026-04-23 19:04 | -45.59708 | 169.52998 | 35434 ft | 407 kts | 45° |
| 2026-04-23 19:05 | -45.55712 | 169.58771 | 35435 ft | 407 kts | 45° |
| 2026-04-23 19:05 | -45.51668 | 169.64604 | 35431 ft | 408 kts | 45° |
| 2026-04-23 19:06 | -45.47554 | 169.70520 | 35436 ft | 407 kts | 45° |
| 2026-04-23 19:06 | -45.43562 | 169.76251 | 35432 ft | 408 kts | 45° |
| 2026-04-23 19:07 | -45.39577 | 169.81959 | 35435 ft | 408 kts | 45° |
| 2026-04-23 19:07 | -45.35533 | 169.87640 | 35436 ft | 408 kts | 44° |
| 2026-04-23 19:08 | -45.31454 | 169.93291 | 35436 ft | 408 kts | 44° |
| 2026-04-23 19:08 | -45.27399 | 169.98891 | 35434 ft | 408 kts | 44° |
| 2026-04-23 19:09 | -45.23291 | 170.04556 | 35434 ft | 408 kts | 44° |
| 2026-04-23 19:09 | -45.19234 | 170.10136 | 35431 ft | 408 kts | 44° |
| 2026-04-23 19:10 | -45.15180 | 170.15700 | 35431 ft | 408 kts | 44° |
| 2026-04-23 19:10 | -45.11103 | 170.21286 | 35433 ft | 408 kts | 44° |
| 2026-04-23 19:11 | -45.06988 | 170.26915 | 35433 ft | 413 kts | 44° |
| 2026-04-23 19:11 | -45.02841 | 170.32570 | 35432 ft | 417 kts | 43° |
| 2026-04-23 19:12 | -44.99340 | 170.37332 | 35452 ft | 426 kts | 43° |
| 2026-04-23 19:12 | -44.96393 | 170.41336 | 35497 ft | 444 kts | 43° |
| 2026-04-23 19:12 | -44.94145 | 170.44386 | 35512 ft | 457 kts | 44° |
| 2026-04-23 19:12 | -44.91837 | 170.47517 | 35532 ft | 470 kts | 43° |
| 2026-04-23 19:13 | -44.89310 | 170.50940 | 35512 ft | 473 kts | 43° |
| 2026-04-23 19:13 | -44.84477 | 170.57472 | 35449 ft | 468 kts | 43° |
| 2026-04-23 19:14 | -44.79789 | 170.63792 | 35436 ft | 468 kts | 43° |
| 2026-04-23 19:14 | -44.74908 | 170.70358 | 35435 ft | 469 kts | 43° |
| 2026-04-23 19:15 | -44.70201 | 170.76674 | 35435 ft | 469 kts | 43° |
| 2026-04-23 19:15 | -44.65479 | 170.82994 | 35435 ft | 469 kts | 43° |
| 2026-04-23 19:16 | -44.60734 | 170.89334 | 35435 ft | 468 kts | 43° |
| 2026-04-23 19:16 | -44.55983 | 170.95665 | 35514 ft | 479 kts | 43° |
| 2026-04-23 19:17 | -44.48740 | 171.05284 | 35422 ft | 460 kts | 42° |
| 2026-04-23 19:17 | -44.46456 | 171.08310 | 35410 ft | 440 kts | 42° |
| 2026-04-23 19:17 | -44.44285 | 171.11183 | 35422 ft | 430 kts | 42° |
| 2026-04-23 19:18 | -44.39856 | 171.17035 | 35383 ft | 438 kts | 43° |
| 2026-04-23 19:18 | -44.35371 | 171.22951 | 35374 ft | 439 kts | 43° |
| 2026-04-23 19:19 | -44.28703 | 171.31718 | 35374 ft | 436 kts | 43° |
| 2026-04-23 19:20 | -44.22131 | 171.40335 | 35379 ft | 432 kts | 43° |
| 2026-04-23 19:20 | -44.17749 | 171.46062 | 35378 ft | 433 kts | 43° |
| 2026-04-23 19:21 | -44.11191 | 171.54613 | 35377 ft | 433 kts | 43° |
| 2026-04-23 19:22 | -44.06782 | 171.60345 | 35376 ft | 433 kts | 43° |
| 2026-04-23 19:22 | -44.00192 | 171.68890 | 35378 ft | 433 kts | 42° |
| 2026-04-23 19:23 | -43.95810 | 171.74559 | 35378 ft | 433 kts | 42° |
| 2026-04-23 19:24 | -43.89581 | 171.83733 | 35379 ft | 434 kts | 50° |
| 2026-04-23 19:24 | -43.83772 | 171.93845 | 35392 ft | 453 kts | 50° |
| 2026-04-23 19:25 | -43.76786 | 172.06007 | 35382 ft | 449 kts | 50° |
| 2026-04-23 19:26 | -43.70912 | 172.16193 | 35381 ft | 449 kts | 50° |
| 2026-04-23 19:27 | -43.61097 | 172.33133 | 35380 ft | 449 kts | 50° |
| 2026-04-23 19:28 | -43.53171 | 172.46739 | 35379 ft | 449 kts | 50° |
| 2026-04-23 19:29 | -43.46296 | 172.55659 | 35374 ft | 448 kts | 37° |
| 2026-04-23 19:30 | -43.38723 | 172.63469 | 35378 ft | 447 kts | 37° |
| 2026-04-23 19:31 | -43.31208 | 172.71158 | 35380 ft | 447 kts | 36° |
| 2026-04-23 19:31 | -43.26215 | 172.76251 | 35371 ft | 447 kts | 36° |
| 2026-04-23 19:32 | -43.21186 | 172.81372 | 35370 ft | 447 kts | 36° |
| 2026-04-23 19:32 | -43.16152 | 172.86491 | 35368 ft | 442 kts | 35° |
| 2026-04-23 19:33 | -43.11213 | 172.91501 | 35368 ft | 438 kts | 35° |
| 2026-04-23 19:33 | -43.03861 | 172.98936 | 35366 ft | 433 kts | 34° |
| 2026-04-23 19:34 | -42.99019 | 173.03822 | 35365 ft | 429 kts | 33° |
| 2026-04-23 19:35 | -42.91793 | 173.11087 | 35364 ft | 424 kts | 33° |
| 2026-04-23 19:35 | -42.86895 | 173.16003 | 35376 ft | 423 kts | 33° |
| 2026-04-23 19:36 | -42.82038 | 173.20868 | 35375 ft | 423 kts | 33° |
| 2026-04-23 19:36 | -42.77313 | 173.25592 | 35375 ft | 423 kts | 33° |
| 2026-04-23 19:37 | -42.72536 | 173.30357 | 35374 ft | 423 kts | 33° |
| 2026-04-23 19:37 | -42.67804 | 173.35071 | 35373 ft | 423 kts | 33° |
| 2026-04-23 19:38 | -42.63104 | 173.39743 | 34036 ft | 431 kts | 33° |
| 2026-04-23 19:38 | -42.60665 | 173.42160 | 33419 ft | 421 kts | 33° |
| 2026-04-23 19:38 | -42.58302 | 173.44501 | 32184 ft | 429 kts | 34° |
| 2026-04-23 19:38 | -42.55904 | 173.46872 | 31446 ft | 421 kts | 34° |
| 2026-04-23 19:39 | -42.53494 | 173.49258 | 30517 ft | 422 kts | 35° |
| 2026-04-23 19:39 | -42.48653 | 173.54047 | 30414 ft | 447 kts | 35° |
| 2026-04-23 19:40 | -42.43543 | 173.59090 | 30429 ft | 454 kts | 35° |
| 2026-04-23 19:40 | -42.41037 | 173.61557 | 30141 ft | 444 kts | 35° |
| 2026-04-23 19:40 | -42.38545 | 173.64003 | 28946 ft | 444 kts | 35° |
| 2026-04-23 19:40 | -42.36034 | 173.66469 | 28001 ft | 438 kts | 35° |
| 2026-04-23 19:41 | -42.33582 | 173.68875 | 27076 ft | 432 kts | 35° |
| 2026-04-23 19:41 | -42.31160 | 173.71251 | 26101 ft | 428 kts | 36° |
| 2026-04-23 19:41 | -42.28793 | 173.73572 | 25186 ft | 423 kts | 36° |
| 2026-04-23 19:41 | -42.26442 | 173.75873 | 24260 ft | 418 kts | 36° |
| 2026-04-23 19:42 | -42.24102 | 173.78162 | 23330 ft | 414 kts | 36° |
| 2026-04-23 19:42 | -42.21766 | 173.80446 | 22410 ft | 410 kts | 37° |
| 2026-04-23 19:42 | -42.19498 | 173.82660 | 21503 ft | 406 kts | 37° |
| 2026-04-23 19:42 | -42.17217 | 173.84885 | 20613 ft | 403 kts | 37° |
| 2026-04-23 19:43 | -42.14951 | 173.87094 | 20384 ft | 402 kts | 37° |
| 2026-04-23 19:43 | -42.12670 | 173.89317 | 20371 ft | 401 kts | 37° |
| 2026-04-23 19:43 | -42.10382 | 173.91542 | 20375 ft | 401 kts | 37° |
| 2026-04-23 19:43 | -42.08115 | 173.93745 | 20369 ft | 401 kts | 37° |
| 2026-04-23 19:44 | -42.05886 | 173.95911 | 20290 ft | 395 kts | 37° |
| 2026-04-23 19:44 | -42.03657 | 173.98070 | 19096 ft | 400 kts | 37° |
| 2026-04-23 19:44 | -42.01411 | 174.00247 | 18339 ft | 393 kts | 37° |
| 2026-04-23 19:44 | -41.99239 | 174.02351 | 17445 ft | 390 kts | 37° |
| 2026-04-23 19:45 | -41.97022 | 174.04495 | 16575 ft | 387 kts | 37° |
| 2026-04-23 19:45 | -41.94825 | 174.06619 | 15719 ft | 383 kts | 37° |
| 2026-04-23 19:45 | -41.92668 | 174.08704 | 14865 ft | 380 kts | 37° |
| 2026-04-23 19:45 | -41.90559 | 174.10739 | 14047 ft | 377 kts | 37° |
| 2026-04-23 19:46 | -41.88427 | 174.12796 | 13224 ft | 374 kts | 37° |
| 2026-04-23 19:46 | -41.86351 | 174.14795 | 13072 ft | 353 kts | 37° |
| 2026-04-23 19:46 | -41.84416 | 174.16711 | 12756 ft | 339 kts | 42° |
| 2026-04-23 19:46 | -41.82693 | 174.18800 | 12373 ft | 330 kts | 43° |
| 2026-04-23 19:47 | -41.81568 | 174.20189 | 11937 ft | 330 kts | 44° |
| 2026-04-23 19:47 | -41.79355 | 174.22935 | 11527 ft | 315 kts | 44° |
| 2026-04-23 19:47 | -41.77797 | 174.24873 | 11490 ft | 298 kts | 44° |
| 2026-04-23 19:47 | -41.76250 | 174.26614 | 11362 ft | 286 kts | 37° |
| 2026-04-23 19:48 | -41.74667 | 174.28180 | 11075 ft | 281 kts | 38° |
| 2026-04-23 19:48 | -41.73071 | 174.29755 | 10661 ft | 280 kts | 38° |
| 2026-04-23 19:48 | -41.71523 | 174.31285 | 10297 ft | 279 kts | 38° |
| 2026-04-23 19:48 | -41.69958 | 174.32835 | 9782 ft | 282 kts | 38° |
| 2026-04-23 19:49 | -41.68386 | 174.34393 | 9428 ft | 279 kts | 38° |
| 2026-04-23 19:49 | -41.66810 | 174.35967 | 8704 ft | 290 kts | 39° |
| 2026-04-23 19:49 | -41.65310 | 174.37743 | 8220 ft | 290 kts | 44° |
| 2026-04-23 19:49 | -41.63844 | 174.39629 | 7494 ft | 298 kts | 45° |
| 2026-04-23 19:50 | -41.62332 | 174.41582 | 7074 ft | 295 kts | 45° |
| 2026-04-23 19:50 | -41.60836 | 174.43515 | 7021 ft | 299 kts | 45° |
| 2026-04-23 19:50 | -41.59335 | 174.45454 | 6985 ft | 296 kts | 45° |
| 2026-04-23 19:50 | -41.57878 | 174.47377 | 6778 ft | 292 kts | 47° |
| 2026-04-23 19:51 | -41.56481 | 174.49388 | 6259 ft | 292 kts | 47° |
| 2026-04-23 19:51 | -41.55089 | 174.51393 | 5789 ft | 291 kts | 47° |
| 2026-04-23 19:51 | -41.53713 | 174.53377 | 5339 ft | 289 kts | 47° |
| 2026-04-23 19:51 | -41.52350 | 174.55345 | 4893 ft | 287 kts | 47° |
| 2026-04-23 19:52 | -41.51462 | 174.56628 | 4600 ft | 286 kts | 48° |
| 2026-04-23 19:52 | -41.49863 | 174.58940 | 4077 ft | 284 kts | 48° |
| 2026-04-23 19:52 | -41.48587 | 174.60906 | 3618 ft | 283 kts | 56° |
| 2026-04-23 19:52 | -41.47774 | 174.63313 | 3199 ft | 279 kts | 69° |
| 2026-04-23 19:53 | -41.47048 | 174.65681 | 3020 ft | 274 kts | 67° |
| 2026-04-23 19:53 | -41.46339 | 174.68001 | 2974 ft | 259 kts | 67° |
| 2026-04-23 19:53 | -41.45683 | 174.70154 | 2962 ft | 245 kts | 67° |
| 2026-04-23 19:53 | -41.45060 | 174.72197 | 2938 ft | 232 kts | 67° |
| 2026-04-23 19:54 | -41.44464 | 174.74153 | 2935 ft | 219 kts | 67° |
| 2026-04-23 19:54 | -41.44046 | 174.76047 | 2928 ft | 208 kts | 77° |
| 2026-04-23 19:54 | -41.43753 | 174.77901 | 2945 ft | 195 kts | 77° |
| 2026-04-23 19:54 | -41.43411 | 174.79564 | 2966 ft | 177 kts | 61° |
| 2026-04-23 19:55 | -41.42615 | 174.80714 | 2926 ft | 163 kts | 38° |
| 2026-04-23 19:55 | -41.41586 | 174.81369 | 2624 ft | 165 kts | 9° |
| 2026-04-23 19:55 | -41.40454 | 174.81200 | 2240 ft | 163 kts | 347° |
| 2026-04-23 19:55 | -41.39362 | 174.80829 | 2008 ft | 155 kts | 347° |
| 2026-04-23 19:56 | -41.38332 | 174.80476 | 1486 ft | 150 kts | 347° |
| 2026-04-23 19:56 | -41.37233 | 174.80167 | 813 ft | 154 kts | 359° |
| 2026-04-23 19:56 | -41.36138 | 174.80335 | 566 ft | 131 kts | 5° |
| 2026-04-23 19:56 | -41.35178 | 174.80472 | 381 ft | 121 kts | 5° |
| 2026-04-23 19:57 | -41.34246 | 174.80594 | 177 ft | 120 kts | 1° |
| 2026-04-23 19:57 | -41.33359 | 174.80644 | 30 ft | 114 kts | 2° |
| 2026-04-23 19:57 | -41.32712 | 174.80688 | 27 ft | 37 kts | 2° |
| 2026-04-23 19:57 | -41.32459 | 174.80705 | 35 ft | 18 kts | 4° |
| 2026-04-23 19:58 | -41.32417 | 174.80724 | 36 ft | 4 kts | 54° |
| 2026-04-23 19:58 | -41.32413 | 174.80766 | 36 ft | 1 kts | 92° |
| 2026-04-23 19:58 | -41.32413 | 174.80785 | 36 ft | 1 kts | 91° |
| 2026-04-23 19:58 | -41.32415 | 174.80808 | 36 ft | 1 kts | 105° |
| 2026-04-23 19:59 | -41.32416 | 174.80811 | 36 ft | 0 kts | 110° |
| 2026-04-23 19:59 | -41.32417 | 174.80814 | 36 ft | 0 kts | 110° |
| 2026-04-23 19:59 | -41.32418 | 174.80817 | 36 ft | 0 kts | 110° |
| 2026-04-23 19:59 | -41.32422 | 174.80824 | 36 ft | 1 kts | 142° |
| 2026-04-23 20:00 | -41.32443 | 174.80835 | 36 ft | 4 kts | 175° |
| 2026-04-23 20:00 | -41.32495 | 174.80830 | 35 ft | 12 kts | 183° |
| 2026-04-23 20:00 | -41.32583 | 174.80824 | 31 ft | 11 kts | 182° |
| 2026-04-23 20:00 | -41.32670 | 174.80818 | 28 ft | 10 kts | 183° |
| 2026-04-23 20:01 | -41.32703 | 174.80821 | 27 ft | 4 kts | 162° |
| 2026-04-23 20:01 | -41.32720 | 174.80856 | 28 ft | 7 kts | 105° |
| 2026-04-23 20:01 | -41.32745 | 174.80888 | 28 ft | 2 kts | 167° |
| 2026-04-23 20:01 | -41.32785 | 174.80891 | 27 ft | 5 kts | 160° |
| 2026-04-23 20:02 | -41.32792 | 174.80901 | 27 ft | 0 kts | 126° |
| 2026-04-23 20:02 | -41.32797 | 174.80922 | 27 ft | 1 kts | 108° |
| 2026-04-23 20:02 | -41.32804 | 174.80948 | 28 ft | 0 kts | 114° |
| 2026-04-23 20:03 | -41.32805 | 174.80949 | 28 ft | 0 kts | 114° |
| 2026-04-23 20:03 | -41.32805 | 174.80951 | 28 ft | 0 kts | 114° |
| 2026-04-23 20:03 | -41.32806 | 174.80953 | 28 ft | 0 kts | 114° |